createdAt,value
2022-12-10T00:00:27.812Z,31.97
2022-12-10T00:02:59.778Z,30.60
2022-12-10T00:05:34.159Z,31.43
2022-12-10T00:08:05.937Z,29.63
2022-12-10T00:10:41.642Z,30.43
2022-12-10T00:13:13.341Z,31.93
2022-12-10T00:15:45.074Z,30.20
2022-12-10T00:18:16.830Z,32.13
2022-12-10T00:20:48.488Z,30.80
2022-12-10T00:23:23.430Z,33.10
2022-12-10T00:25:55.435Z,29.17
2022-12-10T00:28:27.231Z,32.20
2022-12-10T00:31:06.648Z,32.20
2022-12-10T00:33:39.197Z,31.17
2022-12-10T00:36:23.056Z,30.47
2022-12-10T00:38:55.181Z,32.05
2022-12-10T00:41:26.952Z,32.07
2022-12-10T00:43:58.934Z,31.97
2022-12-10T00:46:32.072Z,31.30
2022-12-10T00:49:04.080Z,30.80
2022-12-10T00:51:35.933Z,34.97
2022-12-10T00:54:08.505Z,29.77
2022-12-10T00:56:40.220Z,31.80
2022-12-10T00:59:12.532Z,32.50
2022-12-10T01:01:44.546Z,29.70
2022-12-10T01:04:18.659Z,31.27
2022-12-10T01:06:53.057Z,30.80
2022-12-10T01:09:28.355Z,30.73
2022-12-10T01:12:02.966Z,32.67
2022-12-10T01:14:35.001Z,30.40
2022-12-10T01:17:07.047Z,33.80
2022-12-10T01:19:38.773Z,29.90
2022-12-10T01:22:10.529Z,29.37
2022-12-10T01:24:42.348Z,30.13
2022-12-10T01:27:14.114Z,29.27
2022-12-10T01:29:45.847Z,32.00
2022-12-10T01:32:17.590Z,29.53
2022-12-10T01:34:49.329Z,31.60
2022-12-10T01:37:21.118Z,29.67
2022-12-10T01:39:52.825Z,32.40
2022-12-10T01:42:24.537Z,32.00
2022-12-10T01:45:04.085Z,30.80
2022-12-10T01:47:35.901Z,31.60
2022-12-10T01:50:09.817Z,32.27
2022-12-10T01:52:41.822Z,31.73
2022-12-10T01:55:38.040Z,32.07
2022-12-10T01:58:10.545Z,33.97
2022-12-10T02:00:51.159Z,31.03
2022-12-10T02:03:36.824Z,29.63
2022-12-10T02:06:28.717Z,30.70
2022-12-10T02:09:11.471Z,29.70
2022-12-10T02:11:57.001Z,29.20
2022-12-10T02:14:51.524Z,28.87
2022-12-10T02:17:26.798Z,31.80
2022-12-10T02:20:04.641Z,31.37
2022-12-10T02:22:43.089Z,32.77
2022-12-10T02:25:17.971Z,27.47
2022-12-10T02:28:24.235Z,29.50
2022-12-10T02:30:57.725Z,34.03
2022-12-10T02:33:30.565Z,27.00
2022-12-10T02:36:04.301Z,30.60
2022-12-10T02:38:40.273Z,31.17
2022-12-10T02:41:27.950Z,33.40
2022-12-10T02:44:03.007Z,31.40
2022-12-10T02:46:37.256Z,28.90
2022-12-10T02:49:12.145Z,32.53
2022-12-10T02:51:44.057Z,30.27
2022-12-10T02:54:42.255Z,31.40
2022-12-10T02:57:19.825Z,31.23
2022-12-10T03:00:01.769Z,30.40
2022-12-10T03:02:56.507Z,29.73
2022-12-10T03:05:48.847Z,31.73
2022-12-10T03:08:26.030Z,28.20
2022-12-10T03:11:10.360Z,28.50
2022-12-10T03:14:05.561Z,28.90
2022-12-10T03:16:44.355Z,30.20
2022-12-10T03:19:20.812Z,32.10
2022-12-10T03:21:54.191Z,29.97
2022-12-10T03:24:27.600Z,29.73
2022-12-10T03:26:59.710Z,30.37
2022-12-10T03:29:47.560Z,31.80
2022-12-10T03:32:22.630Z,31.20
2022-12-10T03:34:56.653Z,31.10
2022-12-10T03:37:29.643Z,28.10
2022-12-10T03:40:02.156Z,29.63
2022-12-10T03:42:36.922Z,30.67
2022-12-10T03:45:09.023Z,27.80
2022-12-10T03:47:41.724Z,30.23
2022-12-10T03:50:13.476Z,35.37
2022-12-10T03:52:45.510Z,29.67
2022-12-10T03:55:17.484Z,31.07
2022-12-10T03:57:49.163Z,30.70
2022-12-10T04:00:21.065Z,30.97
2022-12-10T04:02:52.728Z,31.47
2022-12-10T04:05:24.461Z,29.33
2022-12-10T04:07:56.236Z,29.20
2022-12-10T04:10:27.920Z,27.50
2022-12-10T04:13:18.144Z,32.70
2022-12-10T04:16:08.733Z,29.13
2022-12-10T04:18:40.417Z,31.63
2022-12-10T04:21:30.518Z,31.80
2022-12-10T04:24:21.073Z,30.10
2022-12-10T04:26:52.918Z,29.27
2022-12-10T04:29:28.031Z,29.40
2022-12-10T04:32:00.055Z,31.30
2022-12-10T04:34:31.842Z,28.70
2022-12-10T04:37:04.385Z,28.80
2022-12-10T04:39:36.329Z,26.97
2022-12-10T04:42:08.917Z,33.97
2022-12-10T04:44:40.819Z,31.00
2022-12-10T04:47:13.403Z,30.87
2022-12-10T04:49:45.160Z,29.50
2022-12-10T04:52:17.661Z,27.50
2022-12-10T04:54:49.453Z,29.30
2022-12-10T04:57:21.187Z,27.83
2022-12-10T04:59:52.962Z,29.37
2022-12-10T05:02:24.743Z,28.00
2022-12-10T05:04:56.485Z,30.60
2022-12-10T05:07:28.763Z,28.47
2022-12-10T05:10:00.449Z,30.93
2022-12-10T05:12:32.556Z,29.80
2022-12-10T05:15:04.681Z,28.70
2022-12-10T05:17:36.401Z,26.77
2022-12-10T05:20:09.037Z,27.40
2022-12-10T05:22:59.404Z,26.40
2022-12-10T05:25:31.187Z,27.97
2022-12-10T05:28:02.938Z,28.73
2022-12-10T05:30:36.024Z,29.00
2022-12-10T05:33:07.696Z,29.03
2022-12-10T05:35:39.411Z,27.20
2022-12-10T05:38:11.374Z,27.23
2022-12-10T05:40:43.134Z,28.27
2022-12-10T05:43:15.501Z,28.47
2022-12-10T05:45:47.744Z,28.00
2022-12-10T05:48:19.427Z,30.57
2022-12-10T05:50:51.150Z,27.07
2022-12-10T05:53:23.393Z,27.30
2022-12-10T05:56:01.753Z,27.33
2022-12-10T05:58:33.977Z,30.57
2022-12-10T06:01:10.022Z,27.50
2022-12-10T06:03:42.668Z,28.53
2022-12-10T06:06:14.945Z,28.63
2022-12-10T06:08:46.774Z,27.63
2022-12-10T06:11:18.897Z,31.50
2022-12-10T06:13:55.985Z,29.80
2022-12-10T06:16:29.577Z,27.13
2022-12-10T06:19:01.455Z,30.17
2022-12-10T06:21:33.133Z,28.73
2022-12-10T06:24:04.933Z,28.43
2022-12-10T06:26:36.673Z,30.57
2022-12-10T06:29:09.754Z,31.10
2022-12-10T06:31:41.469Z,30.00
2022-12-10T06:34:13.275Z,30.40
2022-12-10T06:36:44.934Z,28.70
2022-12-10T06:39:16.714Z,33.00
2022-12-10T06:41:48.421Z,29.67
2022-12-10T06:44:20.145Z,28.47
2022-12-10T06:46:51.886Z,29.20
2022-12-10T06:49:23.688Z,29.70
2022-12-10T06:51:55.412Z,29.90
2022-12-10T06:54:27.193Z,28.43
2022-12-10T06:56:59.135Z,29.63
2022-12-10T06:59:30.850Z,28.97
2022-12-10T07:02:02.952Z,30.53
2022-12-10T07:04:34.692Z,29.57
2022-12-10T07:07:09.718Z,28.13
2022-12-10T07:09:41.739Z,28.57
2022-12-10T07:12:13.592Z,28.50
2022-12-10T07:14:45.286Z,30.20
2022-12-10T07:17:17.058Z,26.80
2022-12-10T07:19:48.830Z,31.37
2022-12-10T07:22:20.613Z,29.33
2022-12-10T07:24:52.474Z,29.27
2022-12-10T07:27:24.324Z,30.73
2022-12-10T07:29:56.153Z,29.63
2022-12-10T07:32:28.724Z,38.73
2022-12-10T07:35:00.495Z,33.43
2022-12-10T07:37:32.412Z,29.73
2022-12-10T07:40:04.610Z,30.67
2022-12-10T07:42:36.316Z,29.97
2022-12-10T07:45:09.475Z,30.50
2022-12-10T07:47:41.240Z,28.77
2022-12-10T07:50:13.006Z,30.60
2022-12-10T07:52:44.739Z,29.67
2022-12-10T07:55:16.496Z,28.63
2022-12-10T07:57:48.214Z,30.75
2022-12-10T08:00:20.023Z,31.37
2022-12-10T08:02:51.745Z,29.10
2022-12-10T08:05:23.497Z,28.40
2022-12-10T08:08:01.170Z,28.83
2022-12-10T08:10:39.092Z,28.40
2022-12-10T08:13:10.935Z,28.37
2022-12-10T08:15:42.596Z,26.60
2022-12-10T08:18:14.276Z,28.90
2022-12-10T08:20:46.118Z,32.22
2022-12-10T08:23:18.014Z,31.30
2022-12-10T08:25:49.766Z,28.87
2022-12-10T08:28:21.503Z,26.80
2022-12-10T08:30:53.195Z,29.03
2022-12-10T08:33:25.337Z,26.80
2022-12-10T08:36:00.839Z,26.57
2022-12-10T08:38:33.041Z,24.97
2022-12-10T08:41:13.670Z,25.60
2022-12-10T08:43:46.122Z,25.13
2022-12-10T08:46:17.936Z,26.87
2022-12-10T08:48:49.887Z,23.80
2022-12-10T08:51:22.078Z,26.50
2022-12-10T08:53:53.845Z,26.33
2022-12-10T08:56:26.781Z,27.10
2022-12-10T08:58:58.743Z,24.80
2022-12-10T09:01:30.595Z,24.97
2022-12-10T09:04:02.829Z,26.97
2022-12-10T09:06:34.854Z,25.00
2022-12-10T09:09:06.622Z,25.83
2022-12-10T09:11:38.452Z,25.03
2022-12-10T09:14:10.276Z,27.60
2022-12-10T09:16:42.945Z,27.37
2022-12-10T09:19:19.951Z,24.90
2022-12-10T09:21:52.145Z,27.17
2022-12-10T09:24:23.889Z,25.33
2022-12-10T09:26:55.659Z,25.80
2022-12-10T09:29:27.650Z,27.30
2022-12-10T09:31:59.421Z,25.97
2022-12-10T09:34:31.346Z,25.97
2022-12-10T09:37:03.126Z,24.90
2022-12-10T09:39:34.853Z,25.40
2022-12-10T09:42:21.678Z,25.93
2022-12-10T09:44:56.670Z,27.83
2022-12-10T09:47:41.447Z,26.33
2022-12-10T09:50:39.149Z,26.30
2022-12-10T09:53:15.433Z,27.10
2022-12-10T09:55:48.604Z,25.10
2022-12-10T09:58:29.548Z,24.90
2022-12-10T10:01:04.664Z,24.57
2022-12-10T10:03:40.639Z,27.70
2022-12-10T10:06:16.606Z,26.73
2022-12-10T10:08:52.591Z,25.73
2022-12-10T10:11:28.989Z,25.67
2022-12-10T10:14:26.389Z,28.97
2022-12-10T10:17:04.348Z,24.67
2022-12-10T10:19:38.645Z,26.47
2022-12-10T10:22:12.105Z,23.60
2022-12-10T10:24:47.008Z,27.03
2022-12-10T10:27:24.898Z,26.03
2022-12-10T10:30:00.861Z,26.00
2022-12-10T10:32:41.448Z,27.73
2022-12-10T10:35:32.953Z,26.87
2022-12-10T10:38:14.360Z,25.60
2022-12-10T10:40:50.629Z,27.60
2022-12-10T10:43:29.142Z,27.27
2022-12-10T10:46:11.786Z,24.67
2022-12-10T10:48:43.794Z,24.30
2022-12-10T10:51:19.613Z,24.37
2022-12-10T10:53:54.217Z,23.27
2022-12-10T10:56:30.711Z,24.33
2022-12-10T10:59:04.479Z,25.30
2022-12-10T11:01:53.796Z,23.87
2022-12-10T11:04:31.167Z,24.17
2022-12-10T11:07:05.473Z,24.23
2022-12-10T11:09:37.646Z,25.57
2022-12-10T11:12:23.369Z,25.13
2022-12-10T11:14:56.177Z,22.10
2022-12-10T11:17:28.683Z,21.20
2022-12-10T11:20:24.493Z,22.10
2022-12-10T11:22:57.527Z,24.83
2022-12-10T11:25:43.681Z,24.70
2022-12-10T11:28:47.349Z,35.20
2022-12-10T11:31:47.435Z,24.13
2022-12-10T11:34:46.274Z,23.67
2022-12-10T11:37:37.538Z,22.10
2022-12-10T11:40:24.356Z,25.10
2022-12-10T11:43:15.252Z,25.90
2022-12-10T11:45:47.174Z,25.27
2022-12-10T11:48:37.719Z,28.50
2022-12-10T11:51:18.769Z,22.57
2022-12-10T11:54:02.965Z,22.37
2022-12-10T11:56:49.904Z,22.30
2022-12-10T12:00:04.041Z,25.48
2022-12-10T12:02:48.829Z,24.50
2022-12-10T12:05:27.603Z,21.03
2022-12-10T12:08:14.032Z,22.20
2022-12-10T12:11:07.852Z,22.30
2022-12-10T12:14:06.913Z,23.33
2022-12-10T12:16:47.088Z,23.43
2022-12-10T12:19:26.515Z,21.20
2022-12-10T12:22:07.801Z,23.20
2022-12-10T12:24:42.521Z,21.57
2022-12-10T12:27:36.638Z,22.13
2022-12-10T12:30:33.319Z,22.53
2022-12-10T12:33:32.409Z,21.17
2022-12-10T12:36:13.860Z,22.23
2022-12-10T12:39:15.107Z,22.53
2022-12-10T12:42:03.031Z,19.83
2022-12-10T12:45:08.514Z,20.40
2022-12-10T12:48:01.135Z,18.80
2022-12-10T12:50:45.331Z,23.30
2022-12-10T12:53:20.514Z,21.30
2022-12-10T12:55:58.009Z,21.30
2022-12-10T12:58:38.784Z,22.17
2022-12-10T13:01:26.802Z,33.10
2022-12-10T13:03:59.539Z,22.67
2022-12-10T13:06:37.541Z,19.10
2022-12-10T13:09:26.689Z,18.00
2022-12-10T13:12:04.486Z,18.77
2022-12-10T13:14:54.983Z,18.27
2022-12-10T13:18:19.881Z,17.80
2022-12-10T13:21:18.237Z,18.27
2022-12-10T13:24:05.757Z,18.10
2022-12-10T13:26:41.591Z,19.90
2022-12-10T13:29:27.316Z,27.93
2022-12-10T13:32:04.929Z,17.97
2022-12-10T13:34:38.089Z,19.00
2022-12-10T13:37:27.240Z,21.50
2022-12-10T13:40:11.096Z,21.37
2022-12-10T13:43:04.796Z,19.10
2022-12-10T13:45:37.269Z,24.40
2022-12-10T13:48:38.645Z,22.10
2022-12-10T13:51:15.956Z,22.53
2022-12-10T13:54:18.408Z,25.27
2022-12-10T13:57:04.969Z,25.90
2022-12-10T14:00:09.602Z,25.93
2022-12-10T14:03:31.405Z,26.00
2022-12-10T14:06:12.003Z,18.70
2022-12-10T14:08:58.340Z,18.57
2022-12-10T14:11:38.081Z,20.30
2022-12-10T14:14:18.054Z,19.53
2022-12-10T14:16:51.132Z,19.53
2022-12-10T14:19:28.666Z,20.90
2022-12-10T14:22:09.020Z,21.17
2022-12-10T14:24:44.170Z,20.63
2022-12-10T14:27:24.637Z,20.93
2022-12-10T14:30:07.890Z,21.63
2022-12-10T14:32:40.069Z,21.10
2022-12-10T14:35:25.384Z,19.30
2022-12-10T14:38:00.042Z,22.20
2022-12-10T14:40:41.117Z,17.50
2022-12-10T14:43:25.572Z,20.43
2022-12-10T14:45:59.895Z,19.00
2022-12-10T14:48:39.532Z,16.50
2022-12-10T14:51:19.819Z,16.60
2022-12-10T14:53:53.707Z,17.97
2022-12-10T14:56:25.568Z,21.70
2022-12-10T14:59:20.299Z,23.23
2022-12-10T15:01:57.195Z,19.17
2022-12-10T15:04:41.263Z,18.73
2022-12-10T15:07:18.468Z,21.27
2022-12-10T15:09:52.325Z,19.70
2022-12-10T15:12:46.841Z,20.20
2022-12-10T15:15:48.934Z,18.80
2022-12-10T15:18:33.875Z,20.63
2022-12-10T15:21:24.446Z,20.87
2022-12-10T15:24:15.912Z,19.57
2022-12-10T15:26:51.003Z,20.50
2022-12-10T15:29:27.453Z,18.43
2022-12-10T15:32:03.034Z,19.63
2022-12-10T15:35:05.061Z,18.73
2022-12-10T15:37:40.211Z,23.45
2022-12-10T15:40:31.048Z,23.20
2022-12-10T15:43:25.751Z,19.33
2022-12-10T15:45:59.108Z,19.17
2022-12-10T15:48:31.323Z,23.07
2022-12-10T15:51:03.295Z,21.77
2022-12-10T15:53:39.793Z,25.47
2022-12-10T15:56:11.493Z,23.90
2022-12-10T15:58:43.397Z,21.33
2022-12-10T16:01:16.715Z,22.53
2022-12-10T16:03:48.570Z,22.83
2022-12-10T16:06:20.671Z,31.40
2022-12-10T16:08:52.495Z,30.77
2022-12-10T16:11:25.125Z,28.77
2022-12-10T16:13:59.931Z,25.60
2022-12-10T16:16:31.646Z,25.50
2022-12-10T16:19:10.629Z,21.23
2022-12-10T16:21:42.329Z,21.20
2022-12-10T16:24:14.233Z,23.07
2022-12-10T16:26:45.941Z,20.80
2022-12-10T16:29:21.310Z,20.93
2022-12-10T16:31:53.061Z,25.25
2022-12-10T16:34:24.880Z,23.30
2022-12-10T16:36:56.924Z,28.83
2022-12-10T16:39:31.115Z,19.10
2022-12-10T16:42:02.972Z,17.57
2022-12-10T16:44:34.687Z,19.77
2022-12-10T16:47:13.248Z,17.30
2022-12-10T16:49:45.004Z,17.00
2022-12-10T16:52:16.788Z,19.10
2022-12-10T16:54:48.565Z,18.90
2022-12-10T16:57:20.267Z,17.77
2022-12-10T16:59:52.085Z,19.40
2022-12-10T17:02:23.843Z,18.13
2022-12-10T17:04:55.726Z,19.47
2022-12-10T17:07:27.556Z,17.63
2022-12-10T17:10:01.902Z,21.57
2022-12-10T17:12:34.041Z,18.60
2022-12-10T17:15:06.587Z,18.20
2022-12-10T17:17:38.314Z,21.83
2022-12-10T17:20:18.017Z,20.07
2022-12-10T17:22:49.711Z,19.23
2022-12-10T17:25:21.907Z,23.55
2022-12-10T17:27:54.816Z,26.60
2022-12-10T17:30:26.670Z,23.40
2022-12-10T17:32:58.477Z,21.07
2022-12-10T17:35:30.260Z,22.17
2022-12-10T17:38:01.935Z,28.00
2022-12-10T17:40:33.861Z,21.57
2022-12-10T17:43:05.617Z,22.87
2022-12-10T17:45:38.264Z,19.30
2022-12-10T17:48:15.065Z,21.47
2022-12-10T17:50:47.390Z,20.90
2022-12-10T17:53:19.155Z,19.53
2022-12-10T17:55:58.883Z,20.43
2022-12-10T17:58:31.632Z,19.93
2022-12-10T18:01:03.402Z,20.60
2022-12-10T18:03:35.242Z,23.10
2022-12-10T18:06:22.501Z,21.27
2022-12-10T18:08:56.315Z,21.70
2022-12-10T18:11:31.394Z,25.30
2022-12-10T18:14:03.543Z,21.00
2022-12-10T18:16:36.526Z,20.90
2022-12-10T18:19:14.737Z,25.97
2022-12-10T18:21:51.892Z,23.07
2022-12-10T18:24:26.958Z,20.13
2022-12-10T18:26:59.271Z,20.90
2022-12-10T18:29:31.541Z,21.70
2022-12-10T18:32:03.821Z,27.33
2022-12-10T18:34:35.516Z,21.93
2022-12-10T18:37:07.378Z,22.53
2022-12-10T18:39:39.759Z,23.67
2022-12-10T18:42:11.521Z,22.20
2022-12-10T18:44:43.169Z,21.50
2022-12-10T18:47:14.982Z,20.87
2022-12-10T18:49:46.688Z,21.20
2022-12-10T18:52:18.508Z,21.92
2022-12-10T18:54:50.356Z,23.30
2022-12-10T18:57:33.425Z,22.70
2022-12-10T19:00:13.158Z,23.77
2022-12-10T19:02:46.201Z,25.70
2022-12-10T19:05:18.846Z,23.37
2022-12-10T19:07:50.678Z,24.10
2022-12-10T19:10:24.412Z,22.23
2022-12-10T19:12:56.262Z,22.33
2022-12-10T19:15:29.346Z,20.80
2022-12-10T19:18:02.593Z,22.43
2022-12-10T19:20:34.334Z,19.73
2022-12-10T19:23:06.003Z,22.27
2022-12-10T19:25:37.845Z,19.07
2022-12-10T19:28:14.708Z,21.27
2022-12-10T19:30:50.252Z,21.13
2022-12-10T19:33:22.152Z,22.90
2022-12-10T19:35:53.915Z,21.07
2022-12-10T19:38:25.767Z,20.17
2022-12-10T19:40:57.555Z,23.97
2022-12-10T19:43:29.276Z,20.47
2022-12-10T19:46:01.080Z,21.73
2022-12-10T19:48:35.049Z,21.37
2022-12-10T19:51:07.308Z,22.27
2022-12-10T19:53:40.521Z,21.67
2022-12-10T19:56:25.523Z,24.60
2022-12-10T19:59:03.746Z,20.37
2022-12-10T20:01:35.525Z,21.53
2022-12-10T20:04:07.667Z,21.57
2022-12-10T20:06:41.902Z,26.30
2022-12-10T20:09:27.050Z,30.13
2022-12-10T20:11:58.837Z,24.80
2022-12-10T20:14:30.513Z,21.83
2022-12-10T20:17:02.318Z,23.57
2022-12-10T20:19:34.161Z,18.73
2022-12-10T20:22:07.467Z,20.73
2022-12-10T20:24:39.493Z,21.20
2022-12-10T20:27:14.162Z,20.83
2022-12-10T20:29:45.916Z,20.87
2022-12-10T20:32:20.150Z,21.20
2022-12-10T20:34:51.823Z,20.17
2022-12-10T20:37:23.602Z,19.30
2022-12-10T20:40:22.285Z,18.10
2022-12-10T20:42:47.158Z,19.73
2022-12-10T20:45:19.644Z,20.47
2022-12-10T20:47:51.482Z,20.30
2022-12-10T20:50:23.373Z,20.67
2022-12-10T20:52:55.131Z,25.20
2022-12-10T20:55:26.983Z,19.87
2022-12-10T20:57:58.686Z,19.10
2022-12-10T21:00:30.365Z,19.03
2022-12-10T21:03:02.085Z,19.30
2022-12-10T21:05:33.946Z,21.73
2022-12-10T21:08:08.202Z,19.60
2022-12-10T21:10:52.047Z,19.63
2022-12-10T21:13:30.269Z,19.00
2022-12-10T21:16:03.915Z,19.50
2022-12-10T21:18:35.726Z,21.20
2022-12-10T21:21:07.777Z,19.30
2022-12-10T21:23:39.950Z,20.13
2022-12-10T21:26:13.883Z,20.83
2022-12-10T21:28:45.805Z,19.90
2022-12-10T21:31:24.313Z,16.77
2022-12-10T21:33:56.177Z,19.37
2022-12-10T21:36:27.939Z,18.20
2022-12-10T21:38:59.806Z,17.20
2022-12-10T21:41:50.245Z,16.87
2022-12-10T21:44:22.171Z,17.87
2022-12-10T21:46:53.905Z,17.97
2022-12-10T21:49:25.991Z,16.93
2022-12-10T21:51:57.835Z,17.00
2022-12-10T21:54:29.662Z,18.50
2022-12-10T21:57:01.482Z,18.83
2022-12-10T21:59:33.775Z,18.40
2022-12-10T22:02:05.557Z,17.67
2022-12-10T22:04:37.797Z,17.47
2022-12-10T22:07:09.563Z,19.15
2022-12-10T22:09:41.344Z,18.00
2022-12-10T22:12:13.483Z,18.30
2022-12-10T22:14:45.266Z,18.03
2022-12-10T22:17:16.940Z,18.47
2022-12-10T22:19:48.686Z,18.23
2022-12-10T22:22:20.549Z,16.30
2022-12-10T22:24:52.229Z,18.37
2022-12-10T22:27:24.027Z,17.70
2022-12-10T22:29:55.804Z,17.80
2022-12-10T22:32:28.700Z,18.03
2022-12-10T22:35:00.853Z,18.77
2022-12-10T22:37:32.640Z,16.70
2022-12-10T22:40:05.566Z,17.77
2022-12-10T22:42:40.831Z,18.13
2022-12-10T22:45:12.937Z,19.37
2022-12-10T22:47:45.675Z,18.33
2022-12-10T22:50:17.569Z,18.70
2022-12-10T22:52:49.327Z,20.27
2022-12-10T22:55:21.845Z,20.60
2022-12-10T22:57:54.061Z,20.73
2022-12-10T23:00:25.984Z,18.10
2022-12-10T23:02:57.887Z,20.47
2022-12-10T23:05:29.716Z,20.70
2022-12-10T23:08:06.985Z,19.23
2022-12-10T23:10:40.656Z,21.17
2022-12-10T23:13:14.644Z,20.77
2022-12-10T23:15:47.526Z,20.43
2022-12-10T23:18:21.434Z,22.77
2022-12-10T23:20:53.126Z,27.50
2022-12-10T23:23:25.759Z,24.53
2022-12-10T23:26:02.512Z,25.00
2022-12-10T23:28:34.276Z,22.40
2022-12-10T23:31:06.241Z,22.80
2022-12-10T23:33:38.708Z,24.07
2022-12-10T23:36:10.841Z,19.30
2022-12-10T23:38:42.594Z,19.60
2022-12-10T23:41:14.826Z,21.37
2022-12-10T23:43:46.584Z,19.53
2022-12-10T23:46:18.386Z,23.48
2022-12-10T23:48:50.145Z,23.67
2022-12-10T23:51:22.208Z,20.33
2022-12-10T23:53:53.960Z,21.63
2022-12-10T23:56:25.703Z,20.30
2022-12-10T23:58:57.380Z,21.40
